createdAt,value
2018-12-27T09:48:08.223Z,56.55
2018-12-27T09:50:37.709Z,56.26
2018-12-27T09:53:07.220Z,56.76
2018-12-27T09:55:36.711Z,56.64
2018-12-27T09:58:06.205Z,56.56
2018-12-27T10:00:35.690Z,57.15
2018-12-27T10:03:05.173Z,56.57
2018-12-27T10:05:34.685Z,57.46
2018-12-27T10:08:04.155Z,57.42
2018-12-27T10:10:33.655Z,55.95
2018-12-27T10:13:03.166Z,56.17
2018-12-27T10:15:32.660Z,56.12
2018-12-27T10:18:02.151Z,57.11
2018-12-27T10:20:31.642Z,55.99
2018-12-27T10:23:01.146Z,55.13
2018-12-27T10:25:30.661Z,54.07
2018-12-27T10:28:00.173Z,59.21
2018-12-27T10:30:29.673Z,57.73
2018-12-27T10:32:59.190Z,54.91
2018-12-27T10:35:28.694Z,53.23
2018-12-27T10:37:58.194Z,55.38
2018-12-27T10:40:27.707Z,51.46
2018-12-27T10:42:57.210Z,51.32
2018-12-27T10:45:26.739Z,51.10
2018-12-27T10:47:56.263Z,50.96
2018-12-27T10:50:25.761Z,54.12
2018-12-27T10:52:55.254Z,48.23
2018-12-27T10:55:24.767Z,48.71
2018-12-27T10:57:54.263Z,49.05
2018-12-27T11:00:23.761Z,50.10
2018-12-27T11:02:53.255Z,50.58
2018-12-27T11:05:22.750Z,50.44
2018-12-27T11:07:52.231Z,50.38
2018-12-27T11:10:21.727Z,51.91
2018-12-27T11:12:51.247Z,52.96
2018-12-27T11:15:20.746Z,52.26
2018-12-27T11:17:50.241Z,52.01
2018-12-27T11:20:19.758Z,52.63
2018-12-27T11:22:49.236Z,52.60
2018-12-27T11:25:18.821Z,53.02
2018-12-27T11:27:48.276Z,53.40
2018-12-27T11:30:17.788Z,53.42
2018-12-27T11:32:47.261Z,52.99
2018-12-27T11:35:16.759Z,52.35
2018-12-27T11:37:46.263Z,52.06
2018-12-27T11:40:15.761Z,52.51
2018-12-27T11:42:45.240Z,51.85
2018-12-27T11:45:14.740Z,52.16
2018-12-27T11:47:44.249Z,52.90
2018-12-27T11:50:13.827Z,52.29
2018-12-27T11:52:43.303Z,52.42
2018-12-27T11:55:13.856Z,52.43
2018-12-27T11:57:43.337Z,51.81
2018-12-27T12:00:12.826Z,51.52
2018-12-27T12:02:42.319Z,51.72
2018-12-27T12:05:11.841Z,51.76
2018-12-27T12:07:41.316Z,51.52
2018-12-27T12:10:10.825Z,51.87
2018-12-27T12:12:40.314Z,51.81
2018-12-27T12:15:09.837Z,52.23
2018-12-27T12:17:40.111Z,52.30
2018-12-27T12:20:09.611Z,52.20
2018-12-27T12:22:39.078Z,52.45
2018-12-27T12:25:08.580Z,52.91
2018-12-27T12:27:38.055Z,52.94
2018-12-27T12:30:08.628Z,53.06
2018-12-27T12:32:38.108Z,53.08
2018-12-27T12:35:07.588Z,53.31
2018-12-27T12:37:37.168Z,53.32
2018-12-27T12:40:07.371Z,53.01
2018-12-27T12:42:36.894Z,53.23
2018-12-27T12:45:07.056Z,52.99
2018-12-27T12:47:36.545Z,52.73
2018-12-27T12:50:07.128Z,52.69
2018-12-27T12:52:36.643Z,52.48
2018-12-27T12:55:06.176Z,52.28
2018-12-27T12:57:35.667Z,52.14
2018-12-27T13:00:07.399Z,51.78
2018-12-27T13:02:36.885Z,51.47
2018-12-27T13:05:06.445Z,51.66
2018-12-27T13:07:35.970Z,49.70
2018-12-27T13:10:05.689Z,48.97
2018-12-27T13:12:35.194Z,47.76
2018-12-27T13:15:05.039Z,47.64
2018-12-27T13:17:34.535Z,48.23
2018-12-27T13:20:04.224Z,48.01
2018-12-27T13:22:33.719Z,47.06
2018-12-27T13:25:03.219Z,47.17
2018-12-27T13:27:32.730Z,47.80
2018-12-27T13:30:02.209Z,49.13
2018-12-27T13:32:31.709Z,48.57
2018-12-27T13:35:01.207Z,48.48
2018-12-27T13:37:30.713Z,48.63
2018-12-27T13:40:00.195Z,49.29
2018-12-27T13:42:29.720Z,49.50
2018-12-27T13:45:00.269Z,48.78
2018-12-27T13:47:29.775Z,50.14
2018-12-27T13:49:59.232Z,49.17
2018-12-27T13:52:28.778Z,48.86
2018-12-27T13:54:58.304Z,49.64
2018-12-27T13:57:27.815Z,49.69
2018-12-27T13:59:57.307Z,49.79
2018-12-27T14:02:26.842Z,49.86
2018-12-27T14:04:56.342Z,49.47
2018-12-27T14:07:26.821Z,49.81
2018-12-27T14:09:56.368Z,49.88
2018-12-27T14:12:25.872Z,50.00
2018-12-27T14:14:55.365Z,50.01
2018-12-27T14:17:24.935Z,49.84
2018-12-27T14:19:54.451Z,49.39
2018-12-27T14:22:24.040Z,49.43
2018-12-27T14:24:57.902Z,49.76
2018-12-27T14:27:24.773Z,49.46
2018-12-27T14:29:54.283Z,50.60
2018-12-27T14:32:24.378Z,50.25
2018-12-27T14:34:53.843Z,50.41
2018-12-27T14:37:23.359Z,50.42
2018-12-27T14:39:52.888Z,50.73
2018-12-27T14:42:22.415Z,50.71
2018-12-27T14:44:51.929Z,50.82
2018-12-27T14:47:21.467Z,51.18
2018-12-27T14:49:50.974Z,51.33
2018-12-27T14:52:20.487Z,51.12
2018-12-27T14:54:49.986Z,51.47
2018-12-27T14:57:19.784Z,50.88
2018-12-27T14:59:49.316Z,50.83
2018-12-27T15:02:18.827Z,50.95
2018-12-27T15:04:48.328Z,50.86
2018-12-27T15:07:17.844Z,50.72
2018-12-27T15:09:47.359Z,50.52
2018-12-27T15:12:16.854Z,50.51
2018-12-27T15:14:46.366Z,50.50
2018-12-27T15:17:15.866Z,50.51
2018-12-27T15:19:45.400Z,50.51
2018-12-27T15:22:14.906Z,49.59
2018-12-27T15:24:44.412Z,49.81
2018-12-27T15:27:13.932Z,50.25
2018-12-27T15:29:43.446Z,50.69
2018-12-27T15:32:13.007Z,50.27
2018-12-27T15:34:42.557Z,50.72
2018-12-27T15:37:12.101Z,50.36
2018-12-27T15:39:41.638Z,50.54
2018-12-27T15:42:11.610Z,49.98
2018-12-27T15:44:41.210Z,49.90
2018-12-27T15:47:12.223Z,49.84
2018-12-27T15:49:42.247Z,49.63
2018-12-27T15:52:12.093Z,49.32
2018-12-27T15:54:41.800Z,49.10
2018-12-27T15:57:11.791Z,49.13
2018-12-27T15:59:41.832Z,49.13
2018-12-27T16:02:11.606Z,48.68
2018-12-27T16:04:41.465Z,49.08
2018-12-27T16:07:10.974Z,49.31
2018-12-27T16:09:40.491Z,49.00
2018-12-27T16:12:09.997Z,49.19
2018-12-27T16:14:39.899Z,49.38
2018-12-27T16:17:09.583Z,49.38
2018-12-27T16:19:39.089Z,49.26
2018-12-27T16:22:08.571Z,49.35
2018-12-27T16:24:38.071Z,49.50
2018-12-27T16:27:08.494Z,49.32
2018-12-27T16:29:38.065Z,49.08
2018-12-27T16:32:07.618Z,49.25
2018-12-27T16:34:37.113Z,49.22
2018-12-27T16:37:09.115Z,49.58
2018-12-27T16:39:37.924Z,49.35
2018-12-27T16:42:07.487Z,49.90
2018-12-27T16:44:36.998Z,49.35
2018-12-27T16:47:06.479Z,49.43
2018-12-27T16:49:35.976Z,49.25
2018-12-27T16:52:05.472Z,49.60
2018-12-27T16:54:35.010Z,49.54
2018-12-27T16:57:04.537Z,49.72
2018-12-27T16:59:34.057Z,49.34
2018-12-27T17:02:03.584Z,49.41
2018-12-27T17:04:33.092Z,49.73
2018-12-27T17:07:02.606Z,50.00
2018-12-27T17:09:32.108Z,50.14
2018-12-27T17:12:01.626Z,50.10
2018-12-27T17:14:31.135Z,50.37
2018-12-27T17:17:00.639Z,50.89
2018-12-27T17:19:30.144Z,50.82
2018-12-27T17:21:59.647Z,50.93
2018-12-27T17:24:29.137Z,51.50
2018-12-27T17:26:58.631Z,51.83
2018-12-27T17:29:28.138Z,52.05
2018-12-27T17:31:57.657Z,51.90
2018-12-27T17:34:27.422Z,52.39
2018-12-27T17:36:56.901Z,51.95
2018-12-27T17:39:26.386Z,52.43
2018-12-27T17:41:55.895Z,52.39
2018-12-27T17:44:25.412Z,52.38
2018-12-27T17:46:54.911Z,52.08
2018-12-27T17:49:24.422Z,51.94
2018-12-27T17:51:53.923Z,51.94
2018-12-27T17:54:23.426Z,52.08
2018-12-27T17:56:52.937Z,51.60
2018-12-27T17:59:22.431Z,51.78
2018-12-27T18:01:51.947Z,52.03
2018-12-27T18:04:21.465Z,52.19
2018-12-27T18:06:51.567Z,52.35
2018-12-27T18:09:21.095Z,52.40
2018-12-27T18:11:50.575Z,52.55
2018-12-27T18:14:20.062Z,52.57
2018-12-27T18:16:49.604Z,53.02
2018-12-27T18:19:19.086Z,53.30
2018-12-27T18:21:48.595Z,53.19
2018-12-27T18:24:18.111Z,53.15
2018-12-27T18:26:47.630Z,53.08
2018-12-27T18:29:17.141Z,52.43
2018-12-27T18:31:46.661Z,52.42
2018-12-27T18:34:16.173Z,52.61
2018-12-27T18:36:45.707Z,52.51
2018-12-27T18:39:15.236Z,52.85
2018-12-27T18:41:44.766Z,52.79
2018-12-27T18:44:14.305Z,52.56
2018-12-27T18:46:43.844Z,52.45
2018-12-27T18:49:13.346Z,52.42
2018-12-27T18:51:42.849Z,52.23
2018-12-27T18:54:12.352Z,52.43
2018-12-27T18:56:41.871Z,52.30
2018-12-27T18:59:11.360Z,52.46
2018-12-27T19:01:40.911Z,52.66
2018-12-27T19:04:10.895Z,52.12
2018-12-27T19:06:40.432Z,52.28
2018-12-27T19:09:09.923Z,52.82
2018-12-27T19:12:15.671Z,52.16
2018-12-27T19:14:45.308Z,52.72
2018-12-27T19:17:22.678Z,53.33
2018-12-27T19:19:52.179Z,52.98
2018-12-27T19:22:36.041Z,53.73
2018-12-27T19:25:05.768Z,53.74
2018-12-27T19:27:35.272Z,53.74
2018-12-27T19:30:04.948Z,53.42
2018-12-27T19:32:35.471Z,53.67
2018-12-27T19:35:05.107Z,53.94
2018-12-27T19:37:35.655Z,53.84
2018-12-27T19:40:05.565Z,53.76
2018-12-27T19:42:36.148Z,53.58
2018-12-27T19:45:05.846Z,53.63
2018-12-27T19:47:35.375Z,53.40
2018-12-27T19:50:05.381Z,53.56
2018-12-27T19:52:34.893Z,53.54
2018-12-27T19:55:04.505Z,53.56
2018-12-27T19:57:34.004Z,53.85
2018-12-27T20:00:03.591Z,53.85
2018-12-27T20:02:34.064Z,53.60
2018-12-27T20:05:03.739Z,53.40
2018-12-27T20:07:33.276Z,54.16
2018-12-27T20:10:02.800Z,54.31
2018-12-27T20:12:32.380Z,54.09
2018-12-27T20:15:01.885Z,54.08
2018-12-27T20:17:31.397Z,53.83
2018-12-27T20:20:00.894Z,53.42
2018-12-27T20:22:31.459Z,54.09
2018-12-27T20:25:00.961Z,54.06
2018-12-27T20:27:30.491Z,54.10
2018-12-27T20:30:00.006Z,54.39
2018-12-27T20:32:29.510Z,54.79
2018-12-27T20:35:00.091Z,55.02
2018-12-27T20:37:29.576Z,54.58
2018-12-27T20:39:59.096Z,54.52
2018-12-27T20:42:29.570Z,54.86
2018-12-27T20:45:00.204Z,54.73
2018-12-27T20:47:29.667Z,55.16
2018-12-27T20:49:59.186Z,55.12
2018-12-27T20:52:28.697Z,54.96
2018-12-27T20:54:59.469Z,55.02
2018-12-27T20:57:28.949Z,55.62
2018-12-27T20:59:58.398Z,55.62
2018-12-27T21:02:27.896Z,55.90
2018-12-27T21:04:57.405Z,55.97
2018-12-27T21:07:26.901Z,55.65
2018-12-27T21:09:57.375Z,55.70
2018-12-27T21:12:26.891Z,55.79
2018-12-27T21:14:56.390Z,55.93
2018-12-27T21:17:25.898Z,55.75
2018-12-27T21:19:55.401Z,55.49
2018-12-27T21:22:24.904Z,55.78
2018-12-27T21:24:54.413Z,56.21
2018-12-27T21:27:23.927Z,56.36
2018-12-27T21:29:53.437Z,56.51
2018-12-27T21:32:22.955Z,56.72
2018-12-27T21:34:52.474Z,57.09
2018-12-27T21:37:21.977Z,57.55
2018-12-27T21:39:51.488Z,57.50
2018-12-27T21:42:21.006Z,57.66
2018-12-27T21:44:50.525Z,57.70
2018-12-27T21:47:20.033Z,57.36
2018-12-27T21:49:49.555Z,57.18
2018-12-27T21:52:19.053Z,56.82
2018-12-27T21:54:48.632Z,56.90
2018-12-27T21:57:18.178Z,57.23
2018-12-27T21:59:47.729Z,57.39
2018-12-27T22:02:17.256Z,57.52
2018-12-27T22:04:46.773Z,57.87
2018-12-27T22:07:16.299Z,58.12
2018-12-27T22:09:45.850Z,58.11
2018-12-27T22:12:15.357Z,58.54
2018-12-27T22:14:44.911Z,58.41
2018-12-27T22:17:14.520Z,58.26
2018-12-27T22:19:44.101Z,57.94
2018-12-27T22:22:13.613Z,58.40
2018-12-27T22:24:43.135Z,58.34
2018-12-27T22:27:12.683Z,57.86
2018-12-27T22:29:42.197Z,58.20
2018-12-27T22:32:11.731Z,58.11
2018-12-27T22:34:41.249Z,58.31
2018-12-27T22:37:10.771Z,58.44
2018-12-27T22:39:40.283Z,59.07
2018-12-27T22:42:09.813Z,58.67
2018-12-27T22:44:39.332Z,58.86
2018-12-27T22:47:08.835Z,58.99
2018-12-27T22:49:38.345Z,59.24
2018-12-27T22:52:07.846Z,59.22
2018-12-27T22:54:37.359Z,59.13
2018-12-27T22:57:06.867Z,58.83
2018-12-27T22:59:36.385Z,59.03
2018-12-27T23:02:05.880Z,59.29
2018-12-27T23:04:35.433Z,59.35
2018-12-27T23:07:04.939Z,58.96
2018-12-27T23:09:34.475Z,58.59
2018-12-27T23:12:03.992Z,58.26
2018-12-27T23:14:33.517Z,58.41
2018-12-27T23:17:03.018Z,58.25
2018-12-27T23:19:32.500Z,58.37
2018-12-27T23:22:02.017Z,58.37
2018-12-27T23:24:31.640Z,58.00
2018-12-27T23:27:01.199Z,58.55
2018-12-27T23:29:30.752Z,58.28
2018-12-27T23:32:00.314Z,58.44
2018-12-27T23:34:29.848Z,58.06
2018-12-27T23:36:59.341Z,57.80
2018-12-27T23:39:28.857Z,57.24
2018-12-27T23:41:58.460Z,57.54
2018-12-27T23:44:27.989Z,57.16
2018-12-27T23:46:57.508Z,57.08
2018-12-27T23:49:26.987Z,57.19
2018-12-27T23:51:56.670Z,56.62
2018-12-27T23:54:26.158Z,56.87
2018-12-27T23:56:55.659Z,56.61
2018-12-27T23:59:25.163Z,56.17
